createdAt,value
2022-10-23T00:01:15.434Z,9.00
2022-10-23T00:03:44.613Z,9.00
2022-10-23T00:06:12.908Z,9.00
2022-10-23T00:08:41.442Z,9.00
2022-10-23T00:11:10.567Z,11.00
2022-10-23T00:13:38.734Z,10.30
2022-10-23T00:16:08.235Z,9.40
2022-10-23T00:18:38.242Z,9.10
2022-10-23T00:21:07.726Z,9.20
2022-10-23T00:23:35.955Z,9.30
2022-10-23T00:26:04.216Z,9.30
2022-10-23T00:28:32.216Z,9.70
2022-10-23T00:31:02.950Z,9.30
2022-10-23T00:33:31.160Z,9.30
2022-10-23T00:36:00.452Z,10.60
2022-10-23T00:38:28.451Z,9.20
2022-10-23T00:40:56.322Z,9.60
2022-10-23T00:43:27.486Z,9.30
2022-10-23T00:45:55.850Z,9.70
2022-10-23T00:48:24.614Z,9.20
2022-10-23T00:50:52.942Z,9.20
2022-10-23T00:53:23.508Z,9.20
2022-10-23T00:55:55.835Z,10.30
2022-10-23T00:58:23.796Z,9.20
2022-10-23T01:00:53.499Z,10.10
2022-10-23T01:03:26.271Z,9.20
2022-10-23T01:06:01.231Z,9.20
2022-10-23T01:08:35.646Z,9.20
2022-10-23T01:11:11.398Z,9.30
2022-10-23T01:13:45.787Z,9.50
2022-10-23T01:16:19.574Z,9.30
2022-10-23T01:18:54.827Z,9.30
2022-10-23T01:21:28.410Z,9.70
2022-10-23T01:24:11.118Z,9.30
2022-10-23T01:27:00.088Z,9.30
2022-10-23T01:29:36.327Z,9.30
2022-10-23T01:32:10.502Z,9.30
2022-10-23T01:34:45.764Z,9.30
2022-10-23T01:37:17.901Z,10.50
2022-10-23T01:39:49.620Z,9.40
2022-10-23T01:42:21.682Z,9.40
2022-10-23T01:44:54.644Z,9.30
2022-10-23T01:47:28.037Z,10.40
2022-10-23T01:49:57.217Z,9.30
2022-10-23T01:52:25.414Z,10.50
2022-10-23T01:54:55.838Z,9.10
2022-10-23T01:57:26.274Z,9.10
2022-10-23T02:00:00.930Z,9.00
2022-10-23T02:02:31.031Z,8.90
2022-10-23T02:05:03.141Z,8.90
2022-10-23T02:07:31.386Z,8.90
2022-10-23T02:09:59.775Z,8.90
2022-10-23T02:12:34.614Z,8.90
2022-10-23T02:15:12.126Z,8.90
2022-10-23T02:17:48.838Z,9.60
2022-10-23T02:20:21.630Z,10.00
2022-10-23T02:22:56.825Z,8.80
2022-10-23T02:25:31.909Z,9.40
2022-10-23T02:28:04.096Z,8.80
2022-10-23T02:30:34.698Z,8.90
2022-10-23T02:33:03.566Z,8.80
2022-10-23T02:35:31.559Z,8.80
2022-10-23T02:38:02.160Z,8.80
2022-10-23T02:40:40.203Z,8.80
2022-10-23T02:43:15.341Z,8.80
2022-10-23T02:45:52.313Z,8.80
2022-10-23T02:48:24.072Z,8.80
2022-10-23T02:51:01.075Z,10.70
2022-10-23T02:53:36.727Z,8.60
2022-10-23T02:56:10.368Z,8.50
2022-10-23T02:58:45.787Z,8.50
2022-10-23T03:01:17.928Z,10.40
2022-10-23T03:03:50.479Z,8.40
2022-10-23T03:06:18.562Z,9.40
2022-10-23T03:08:53.560Z,8.30
2022-10-23T03:11:21.667Z,8.30
2022-10-23T03:13:49.538Z,8.20
2022-10-23T03:16:19.026Z,8.10
2022-10-23T03:18:46.911Z,8.10
2022-10-23T03:21:14.801Z,8.10
2022-10-23T03:23:42.648Z,9.80
2022-10-23T03:26:10.541Z,8.00
2022-10-23T03:28:38.478Z,9.50
2022-10-23T03:31:06.623Z,9.40
2022-10-23T03:33:35.855Z,7.90
2022-10-23T03:36:03.770Z,7.80
2022-10-23T03:38:31.660Z,9.80
2022-10-23T03:40:59.555Z,7.80
2022-10-23T03:43:27.429Z,8.00
2022-10-23T03:45:56.958Z,7.70
2022-10-23T03:48:25.069Z,7.70
2022-10-23T03:50:54.339Z,7.60
2022-10-23T03:53:22.188Z,7.70
2022-10-23T03:55:50.043Z,7.70
2022-10-23T03:58:17.922Z,8.50
2022-10-23T04:00:45.842Z,7.60
2022-10-23T04:03:13.782Z,7.60
2022-10-23T04:05:42.656Z,7.50
2022-10-23T04:08:15.227Z,7.50
2022-10-23T04:10:45.590Z,7.50
2022-10-23T04:13:13.500Z,7.50
2022-10-23T04:15:41.393Z,7.40
2022-10-23T04:18:09.296Z,7.40
2022-10-23T04:20:37.167Z,7.30
2022-10-23T04:23:05.036Z,8.30
2022-10-23T04:25:34.285Z,9.20
2022-10-23T04:28:02.275Z,8.00
2022-10-23T04:30:30.138Z,7.30
2022-10-23T04:32:58.208Z,7.40
2022-10-23T04:35:26.235Z,7.30
2022-10-23T04:37:54.111Z,7.30
2022-10-23T04:40:21.982Z,7.30
2022-10-23T04:42:51.200Z,7.30
2022-10-23T04:45:19.060Z,7.30
2022-10-23T04:47:46.946Z,8.70
2022-10-23T04:50:16.149Z,7.30
2022-10-23T04:52:44.279Z,7.30
2022-10-23T04:55:12.399Z,7.30
2022-10-23T04:57:40.284Z,7.30
2022-10-23T05:00:13.567Z,7.30
2022-10-23T05:02:41.759Z,7.30
2022-10-23T05:05:10.394Z,7.40
2022-10-23T05:07:39.210Z,7.40
2022-10-23T05:10:07.929Z,7.40
2022-10-23T05:12:35.836Z,7.50
2022-10-23T05:15:03.691Z,8.90
2022-10-23T05:17:35.853Z,7.60
2022-10-23T05:20:07.611Z,7.60
2022-10-23T05:22:38.234Z,7.70
2022-10-23T05:25:06.751Z,7.70
2022-10-23T05:27:34.677Z,7.70
2022-10-23T05:30:03.430Z,9.70
2022-10-23T05:32:34.465Z,7.60
2022-10-23T05:35:04.327Z,7.50
2022-10-23T05:37:32.714Z,7.50
2022-10-23T05:40:00.567Z,7.50
2022-10-23T05:42:28.457Z,7.40
2022-10-23T05:44:56.340Z,7.40
2022-10-23T05:47:24.234Z,7.40
2022-10-23T05:49:53.509Z,7.40
2022-10-23T05:52:21.378Z,7.50
2022-10-23T05:54:49.250Z,7.50
2022-10-23T05:59:44.931Z,7.50
2022-10-23T06:02:12.853Z,9.40
2022-10-23T06:04:40.741Z,7.50
2022-10-23T06:07:09.964Z,7.40
2022-10-23T06:09:37.812Z,7.50
2022-10-23T06:12:06.231Z,7.50
2022-10-23T06:14:34.120Z,7.60
2022-10-23T06:17:01.995Z,7.60
2022-10-23T06:19:29.875Z,7.60
2022-10-23T06:21:57.736Z,7.60
2022-10-23T06:24:27.107Z,9.70
2022-10-23T06:26:54.972Z,7.70
2022-10-23T06:29:23.040Z,7.70
2022-10-23T06:31:50.912Z,7.70
2022-10-23T06:34:18.836Z,9.50
2022-10-23T06:36:46.705Z,7.80
2022-10-23T06:39:14.608Z,7.90
2022-10-23T06:41:45.382Z,7.90
2022-10-23T06:44:13.271Z,8.00
2022-10-23T06:46:41.172Z,8.00
2022-10-23T06:49:09.039Z,9.70
2022-10-23T06:51:36.862Z,8.20
2022-10-23T06:54:04.965Z,8.30
2022-10-23T06:56:32.823Z,8.50
2022-10-23T06:59:02.025Z,8.50
2022-10-23T07:01:30.136Z,8.60
2022-10-23T07:03:58.150Z,8.70
2022-10-23T07:06:26.067Z,10.20
2022-10-23T07:08:53.911Z,10.60
2022-10-23T07:11:21.835Z,8.90
2022-10-23T07:13:49.799Z,9.00
2022-10-23T07:16:21.199Z,10.60
2022-10-23T07:18:50.268Z,9.20
2022-10-23T07:21:18.154Z,11.00
2022-10-23T07:23:46.002Z,9.40
2022-10-23T07:26:15.916Z,9.50
2022-10-23T07:28:45.323Z,9.60
2022-10-23T07:31:13.976Z,9.70
2022-10-23T07:33:43.214Z,9.80
2022-10-23T07:36:11.712Z,9.90
2022-10-23T07:38:39.616Z,11.30
2022-10-23T07:41:09.027Z,10.10
2022-10-23T07:43:39.686Z,11.30
2022-10-23T07:46:09.638Z,10.30
2022-10-23T07:48:37.833Z,12.10
2022-10-23T07:51:10.486Z,11.60
2022-10-23T07:53:38.982Z,10.60
2022-10-23T07:56:14.522Z,10.80
2022-10-23T07:58:42.489Z,11.40
2022-10-23T08:01:18.555Z,11.10
2022-10-23T08:03:47.320Z,13.00
2022-10-23T08:06:16.587Z,11.30
2022-10-23T08:11:15.994Z,12.30
2022-10-23T08:13:44.229Z,11.60
2022-10-23T08:16:12.116Z,11.70
2022-10-23T08:18:41.413Z,11.80
2022-10-23T08:21:09.535Z,13.20
2022-10-23T08:23:39.127Z,12.90
2022-10-23T08:26:08.111Z,14.00
2022-10-23T08:28:36.327Z,13.90
2022-10-23T08:31:09.463Z,12.30
2022-10-23T08:33:37.515Z,12.30
2022-10-23T08:36:05.905Z,13.60
2022-10-23T08:38:35.515Z,12.40
2022-10-23T08:41:04.794Z,13.20
2022-10-23T08:43:38.554Z,12.50
2022-10-23T08:46:12.984Z,12.70
2022-10-23T08:48:44.291Z,12.80
2022-10-23T08:51:18.820Z,12.90
2022-10-23T08:53:53.403Z,13.00
2022-10-23T08:56:28.527Z,14.70
2022-10-23T08:59:05.252Z,13.70
2022-10-23T09:01:38.917Z,13.80
2022-10-23T09:04:07.712Z,13.40
2022-10-23T09:06:40.567Z,15.20
2022-10-23T09:09:30.266Z,13.80
2022-10-23T09:12:05.263Z,14.50
2022-10-23T09:14:56.377Z,13.90
2022-10-23T09:17:26.858Z,14.10
2022-10-23T09:20:01.187Z,14.20
2022-10-23T09:22:29.763Z,15.10
2022-10-23T09:24:57.643Z,14.30
2022-10-23T09:27:26.883Z,15.20
2022-10-23T09:29:56.417Z,15.90
2022-10-23T09:32:35.023Z,15.20
2022-10-23T09:35:03.119Z,14.60
2022-10-23T09:37:35.791Z,14.60
2022-10-23T09:40:15.397Z,14.70
2022-10-23T09:42:55.323Z,14.80
2022-10-23T09:45:25.485Z,15.80
2022-10-23T09:48:03.991Z,15.00
2022-10-23T09:50:31.892Z,16.00
2022-10-23T09:53:00.151Z,16.20
2022-10-23T09:55:29.067Z,16.50
2022-10-23T09:57:58.399Z,16.30
2022-10-23T10:00:27.962Z,15.50
2022-10-23T10:02:58.570Z,16.10
2022-10-23T10:05:29.502Z,15.60
2022-10-23T10:08:00.950Z,15.60
2022-10-23T10:10:36.569Z,17.00
2022-10-23T10:13:18.538Z,17.50
2022-10-23T10:15:51.592Z,15.80
2022-10-23T10:18:26.498Z,16.00
2022-10-23T10:21:06.462Z,15.90
2022-10-23T10:23:43.111Z,15.90
2022-10-23T10:26:22.691Z,17.00
2022-10-23T10:29:03.848Z,16.90
2022-10-23T10:31:50.760Z,16.20
2022-10-23T10:34:29.689Z,16.50
2022-10-23T10:37:00.863Z,16.60
2022-10-23T10:39:47.041Z,17.10
2022-10-23T10:42:32.040Z,16.90
2022-10-23T10:45:18.932Z,17.10
2022-10-23T10:47:57.210Z,17.20
2022-10-23T10:50:31.427Z,17.70
2022-10-23T10:53:09.708Z,17.40
2022-10-23T10:55:40.395Z,17.50
2022-10-23T10:58:18.159Z,17.60
2022-10-23T11:00:51.343Z,17.60
2022-10-23T11:03:29.928Z,17.70
2022-10-23T11:08:44.473Z,18.00
2022-10-23T11:11:29.175Z,18.10
2022-10-23T11:13:57.595Z,18.20
2022-10-23T11:16:30.381Z,18.20
2022-10-23T11:19:09.928Z,18.30
2022-10-23T11:21:44.290Z,18.40
2022-10-23T11:24:41.416Z,18.50
2022-10-23T11:27:43.238Z,18.50
2022-10-23T11:30:20.537Z,18.60
2022-10-23T11:33:17.587Z,18.60
2022-10-23T11:35:55.207Z,18.70
2022-10-23T11:38:27.835Z,18.70
2022-10-23T11:40:59.768Z,18.70
2022-10-23T11:43:29.411Z,18.80
2022-10-23T11:45:57.892Z,19.10
2022-10-23T11:48:38.867Z,19.00
2022-10-23T11:51:07.563Z,19.00
2022-10-23T11:53:41.211Z,19.10
2022-10-23T11:56:27.735Z,19.00
2022-10-23T11:58:57.470Z,19.00
2022-10-23T12:01:40.500Z,18.90
2022-10-23T12:04:21.309Z,19.00
2022-10-23T12:06:51.987Z,19.10
2022-10-23T12:09:33.023Z,19.00
2022-10-23T12:12:18.139Z,19.20
2022-10-23T12:14:49.748Z,19.00
2022-10-23T12:17:31.410Z,19.10
2022-10-23T12:20:20.619Z,19.00
2022-10-23T12:22:59.620Z,19.10
2022-10-23T12:25:38.544Z,19.10
2022-10-23T12:28:13.951Z,19.10
2022-10-23T12:30:48.323Z,19.10
2022-10-23T12:33:28.133Z,19.10
2022-10-23T12:36:20.286Z,19.10
2022-10-23T12:38:49.819Z,19.10
2022-10-23T12:41:24.104Z,19.10
2022-10-23T12:43:56.172Z,19.10
2022-10-23T12:46:31.585Z,19.10
2022-10-23T12:49:00.927Z,19.00
2022-10-23T12:51:32.481Z,18.90
2022-10-23T12:54:00.829Z,18.90
2022-10-23T12:56:35.450Z,18.70
2022-10-23T12:59:03.974Z,18.70
2022-10-23T13:01:34.159Z,18.70
2022-10-23T13:04:09.084Z,18.70
2022-10-23T13:06:39.339Z,18.60
2022-10-23T13:09:08.489Z,18.60
2022-10-23T13:11:36.663Z,18.60
2022-10-23T13:14:12.502Z,18.50
2022-10-23T13:16:40.507Z,18.70
2022-10-23T13:19:21.722Z,18.50
2022-10-23T13:21:50.987Z,18.50
2022-10-23T13:24:22.420Z,18.50
2022-10-23T13:26:50.354Z,18.50
2022-10-23T13:29:21.755Z,18.50
2022-10-23T13:31:49.914Z,18.40
2022-10-23T13:34:23.121Z,18.30
2022-10-23T13:36:59.342Z,18.30
2022-10-23T13:39:29.774Z,18.20
2022-10-23T13:42:00.979Z,18.20
2022-10-23T13:44:28.966Z,18.10
2022-10-23T13:46:57.546Z,18.10
2022-10-23T13:49:25.469Z,18.10
2022-10-23T13:51:56.578Z,18.10
2022-10-23T13:56:59.128Z,18.20
2022-10-23T13:59:27.426Z,18.10
2022-10-23T14:01:55.393Z,18.10
2022-10-23T14:04:23.867Z,18.20
2022-10-23T14:06:58.251Z,18.10
2022-10-23T14:09:27.587Z,18.10
2022-10-23T14:11:55.490Z,18.10
2022-10-23T14:14:23.441Z,18.20
2022-10-23T14:16:52.742Z,17.60
2022-10-23T14:19:20.621Z,18.20
2022-10-23T14:21:48.534Z,18.10
2022-10-23T14:24:16.416Z,18.10
2022-10-23T14:26:45.645Z,18.10
2022-10-23T14:29:23.090Z,18.00
2022-10-23T14:31:52.445Z,18.00
2022-10-23T14:34:20.551Z,17.90
2022-10-23T14:36:50.190Z,17.80
2022-10-23T14:39:19.103Z,17.80
2022-10-23T14:41:48.427Z,17.70
2022-10-23T14:44:16.354Z,17.90
2022-10-23T14:46:44.399Z,17.60
2022-10-23T14:49:12.281Z,17.60
2022-10-23T14:51:40.155Z,18.00
2022-10-23T14:54:09.583Z,17.50
2022-10-23T14:56:39.367Z,17.80
2022-10-23T14:59:10.632Z,17.60
2022-10-23T15:01:43.770Z,17.60
2022-10-23T15:04:15.402Z,17.50
2022-10-23T15:06:43.647Z,17.50
2022-10-23T15:09:14.618Z,17.40
2022-10-23T15:11:42.723Z,17.40
2022-10-23T15:14:12.009Z,17.40
2022-10-23T15:16:42.200Z,17.60
2022-10-23T15:19:15.190Z,17.40
2022-10-23T15:21:46.454Z,17.40
2022-10-23T15:24:14.382Z,17.30
2022-10-23T15:26:43.176Z,17.40
2022-10-23T15:29:14.448Z,17.20
2022-10-23T15:31:45.856Z,17.10
2022-10-23T15:34:15.517Z,17.60
2022-10-23T15:36:44.795Z,17.50
2022-10-23T15:39:13.708Z,17.30
2022-10-23T15:41:43.521Z,17.00
2022-10-23T15:44:16.024Z,17.30
2022-10-23T15:46:44.045Z,16.70
2022-10-23T15:49:12.385Z,17.00
2022-10-23T15:51:40.730Z,16.50
2022-10-23T15:54:10.191Z,17.10
2022-10-23T15:56:38.327Z,17.10
2022-10-23T15:59:06.199Z,16.50
2022-10-23T16:01:35.691Z,17.00
2022-10-23T16:04:03.689Z,16.40
2022-10-23T16:06:31.742Z,16.80
2022-10-23T16:08:59.959Z,17.00
2022-10-23T16:11:30.568Z,16.80
2022-10-23T16:14:03.081Z,16.30
2022-10-23T16:16:31.516Z,16.30
2022-10-23T16:19:01.527Z,16.80
2022-10-23T16:21:31.099Z,16.60
2022-10-23T16:24:01.218Z,16.20
2022-10-23T16:26:31.004Z,16.70
2022-10-23T16:29:00.918Z,16.00
2022-10-23T16:31:29.590Z,16.00
2022-10-23T16:34:00.741Z,16.60
2022-10-23T16:36:29.130Z,15.90
2022-10-23T16:38:58.832Z,16.90
2022-10-23T16:41:26.741Z,15.80
2022-10-23T16:43:54.590Z,16.80
2022-10-23T16:46:23.399Z,16.50
2022-10-23T16:48:53.928Z,16.40
2022-10-23T16:51:24.958Z,16.30
2022-10-23T16:53:54.338Z,16.40
2022-10-23T16:56:24.465Z,15.60
2022-10-23T16:58:52.520Z,16.80
2022-10-23T17:01:22.479Z,15.50
2022-10-23T17:03:51.999Z,16.50
2022-10-23T17:06:22.387Z,15.50
2022-10-23T17:08:51.847Z,15.40
2022-10-23T17:11:21.882Z,15.40
2022-10-23T17:13:55.180Z,16.10
2022-10-23T17:16:28.251Z,16.50
2022-10-23T17:18:56.568Z,15.50
2022-10-23T17:21:24.994Z,15.50
2022-10-23T17:23:54.510Z,16.70
2022-10-23T17:26:23.158Z,15.90
2022-10-23T17:28:51.127Z,15.60
2022-10-23T17:31:21.468Z,16.50
2022-10-23T17:33:51.400Z,17.40
2022-10-23T17:36:21.061Z,15.70
2022-10-23T17:38:49.235Z,16.00
2022-10-23T17:41:20.100Z,16.20
2022-10-23T17:43:48.501Z,15.70
2022-10-23T17:46:17.554Z,15.80
2022-10-23T17:48:45.751Z,15.60
2022-10-23T17:51:16.124Z,15.80
2022-10-23T17:53:46.270Z,16.60
2022-10-23T17:56:18.982Z,15.50
2022-10-23T17:58:49.131Z,16.00
2022-10-23T18:01:19.551Z,15.30
2022-10-23T18:03:48.109Z,15.80
2022-10-23T18:06:19.098Z,15.30
2022-10-23T18:08:48.087Z,15.50
2022-10-23T18:11:18.854Z,15.30
2022-10-23T18:13:48.262Z,16.10
2022-10-23T18:16:16.716Z,16.30
2022-10-23T18:18:48.033Z,15.70
2022-10-23T18:21:17.214Z,15.80
2022-10-23T18:23:45.147Z,14.90
2022-10-23T18:26:17.153Z,16.20
2022-10-23T18:28:46.180Z,14.80
2022-10-23T18:31:16.409Z,14.80
2022-10-23T18:33:44.490Z,14.80
2022-10-23T18:36:17.565Z,15.30
2022-10-23T18:38:47.623Z,14.70
2022-10-23T18:41:15.682Z,16.00
2022-10-23T18:43:44.717Z,14.70
2022-10-23T18:46:13.120Z,14.80
2022-10-23T18:48:43.367Z,15.70
2022-10-23T18:51:16.309Z,14.90
2022-10-23T18:53:46.832Z,14.90
2022-10-23T18:56:15.705Z,15.40
2022-10-23T18:58:43.653Z,14.80
2022-10-23T19:01:11.717Z,16.40
2022-10-23T19:03:39.725Z,15.80
2022-10-23T19:06:09.664Z,16.40
2022-10-23T19:08:38.117Z,14.80
2022-10-23T19:11:07.314Z,16.60
2022-10-23T19:13:39.056Z,14.80
2022-10-23T19:16:09.980Z,15.30
2022-10-23T19:18:39.888Z,14.80
2022-10-23T19:21:09.480Z,16.00
2022-10-23T19:23:38.284Z,14.70
2022-10-23T19:26:08.808Z,15.90
2022-10-23T19:28:37.981Z,14.80
2022-10-23T19:31:07.545Z,15.80
2022-10-23T19:33:36.102Z,14.80
2022-10-23T19:36:05.339Z,15.00
2022-10-23T19:38:35.188Z,15.70
2022-10-23T19:41:03.786Z,15.20
2022-10-23T19:43:31.663Z,15.30
2022-10-23T19:46:04.033Z,15.60
2022-10-23T19:48:34.347Z,14.60
2022-10-23T19:51:02.605Z,14.70
2022-10-23T19:53:30.686Z,14.70
2022-10-23T19:56:11.169Z,16.50
2022-10-23T19:58:39.713Z,14.50
2022-10-23T20:01:09.211Z,14.50
2022-10-23T20:03:37.229Z,15.40
2022-10-23T20:06:05.558Z,15.80
2022-10-23T20:08:35.086Z,14.30
2022-10-23T20:11:03.157Z,15.50
2022-10-23T20:13:33.019Z,15.20
2022-10-23T20:16:01.267Z,15.70
2022-10-23T20:18:29.164Z,14.30
2022-10-23T20:20:57.029Z,15.80
2022-10-23T20:23:25.600Z,15.40
2022-10-23T20:25:53.566Z,15.10
2022-10-23T20:28:21.712Z,14.90
2022-10-23T20:30:50.937Z,15.30
2022-10-23T20:33:18.789Z,15.00
2022-10-23T20:35:46.722Z,14.30
2022-10-23T20:38:14.599Z,15.70
2022-10-23T20:40:42.445Z,14.20
2022-10-23T20:43:10.312Z,15.60
2022-10-23T20:45:38.188Z,16.10
2022-10-23T20:48:08.043Z,15.80
2022-10-23T20:50:36.235Z,14.20
2022-10-23T20:53:04.616Z,15.30
2022-10-23T20:55:32.542Z,14.10
2022-10-23T20:58:00.375Z,15.50
2022-10-23T21:00:28.248Z,14.80
2022-10-23T21:02:56.568Z,14.30
2022-10-23T21:05:26.077Z,15.70
2022-10-23T21:07:53.986Z,13.90
2022-10-23T21:10:21.863Z,15.10
2022-10-23T21:12:49.776Z,15.30
2022-10-23T21:15:17.896Z,15.80
2022-10-23T21:17:48.843Z,13.80
2022-10-23T21:20:17.872Z,14.60
2022-10-23T21:22:47.124Z,13.70
2022-10-23T21:25:14.992Z,14.90
2022-10-23T21:27:43.176Z,15.50
2022-10-23T21:30:12.170Z,15.00
2022-10-23T21:32:40.592Z,13.50
2022-10-23T21:35:10.135Z,14.70
2022-10-23T21:37:38.001Z,13.50
2022-10-23T21:40:08.801Z,14.60
2022-10-23T21:42:36.664Z,13.40
2022-10-23T21:45:05.083Z,14.50
2022-10-23T21:47:34.789Z,13.30
2022-10-23T21:50:02.733Z,15.10
2022-10-23T21:52:30.729Z,13.30
2022-10-23T21:54:58.604Z,15.10
2022-10-23T21:57:31.076Z,13.10
2022-10-23T21:59:59.185Z,14.70
2022-10-23T22:02:27.909Z,14.80
2022-10-23T22:04:55.968Z,14.40
2022-10-23T22:07:23.935Z,13.10
2022-10-23T22:09:51.868Z,15.20
2022-10-23T22:12:19.759Z,13.30
2022-10-23T22:14:48.987Z,14.60
2022-10-23T22:17:16.922Z,14.50
2022-10-23T22:19:45.024Z,13.50
2022-10-23T22:22:12.924Z,13.40
2022-10-23T22:24:40.841Z,15.40
2022-10-23T22:27:08.742Z,14.90
2022-10-23T22:29:36.611Z,15.40
2022-10-23T22:32:06.114Z,15.60
2022-10-23T22:34:52.048Z,13.70
2022-10-23T22:37:20.760Z,13.70
2022-10-23T22:39:51.546Z,13.90
2022-10-23T22:42:19.442Z,14.50
2022-10-23T22:44:47.326Z,14.20
2022-10-23T22:47:16.518Z,13.90
2022-10-23T22:49:44.371Z,15.80
2022-10-23T22:52:12.230Z,14.70
2022-10-23T22:54:40.120Z,14.50
2022-10-23T22:57:07.994Z,14.40
2022-10-23T22:59:35.828Z,14.10
2022-10-23T23:02:03.771Z,15.30
2022-10-23T23:04:40.239Z,15.40
2022-10-23T23:07:09.435Z,15.00
2022-10-23T23:09:38.789Z,15.40
2022-10-23T23:12:06.892Z,15.30
2022-10-23T23:14:34.880Z,14.20
2022-10-23T23:17:02.814Z,14.20
2022-10-23T23:19:32.028Z,14.30
2022-10-23T23:22:00.667Z,14.90
2022-10-23T23:24:28.609Z,14.30
2022-10-23T23:26:56.506Z,15.30
2022-10-23T23:29:24.379Z,14.40
2022-10-23T23:31:52.278Z,14.30
2022-10-23T23:34:20.166Z,14.30
2022-10-23T23:36:49.389Z,14.20
2022-10-23T23:39:17.758Z,15.10
2022-10-23T23:41:45.619Z,14.20
2022-10-23T23:44:13.488Z,14.90
2022-10-23T23:46:41.367Z,14.40
2022-10-23T23:49:09.246Z,15.60
2022-10-23T23:51:37.163Z,14.20
2022-10-23T23:54:06.552Z,14.10
2022-10-23T23:56:34.407Z,14.10
2022-10-23T23:59:02.805Z,14.10
